createdAt,value
2018-06-08T00:02:12.480Z,3.33
2018-06-08T00:04:42.849Z,3.47
2018-06-08T00:07:18.828Z,3.00
2018-06-08T00:09:49.194Z,3.80
2018-06-08T00:12:19.581Z,3.60
2018-06-08T00:14:49.942Z,3.27
2018-06-08T00:17:20.322Z,3.77
2018-06-08T00:19:50.650Z,3.50
2018-06-08T00:22:21.289Z,3.20
2018-06-08T00:24:51.610Z,3.30
2018-06-08T00:27:21.995Z,3.13
2018-06-08T00:29:52.365Z,3.07
2018-06-08T00:32:22.728Z,3.40
2018-06-08T00:34:53.596Z,3.10
2018-06-08T00:37:25.149Z,3.43
2018-06-08T00:39:56.245Z,3.30
2018-06-08T00:42:46.040Z,3.47
2018-06-08T00:45:16.400Z,3.50
2018-06-08T00:47:47.550Z,3.50
2018-06-08T00:50:19.730Z,3.27
2018-06-08T00:52:50.092Z,3.17
2018-06-08T00:55:42.270Z,3.33
2018-06-08T00:58:12.871Z,3.70
2018-06-08T01:00:44.342Z,3.67
2018-06-08T01:03:14.736Z,3.60
2018-06-08T01:05:49.199Z,3.33
2018-06-08T01:08:19.564Z,3.47
2018-06-08T01:10:50.625Z,3.50
2018-06-08T01:13:41.831Z,3.00
2018-06-08T01:16:12.252Z,3.47
2018-06-08T01:18:42.642Z,3.50
2018-06-08T01:21:13.807Z,3.37
2018-06-08T01:23:44.208Z,3.73
2018-06-08T01:26:14.580Z,3.23
2018-06-08T01:28:46.991Z,3.70
2018-06-08T01:31:17.876Z,3.63
2018-06-08T01:33:48.762Z,3.47
2018-06-08T01:36:19.282Z,3.40
2018-06-08T01:38:51.719Z,2.93
2018-06-08T01:41:22.084Z,3.30
2018-06-08T01:43:54.495Z,3.17
2018-06-08T01:46:25.965Z,3.37
2018-06-08T01:48:56.326Z,3.53
2018-06-08T01:51:28.935Z,3.20
2018-06-08T01:53:59.321Z,3.67
2018-06-08T01:56:34.750Z,3.20
2018-06-08T01:59:05.144Z,3.40
2018-06-08T02:01:35.461Z,2.67
2018-06-08T02:04:05.822Z,3.50
2018-06-08T02:06:36.563Z,3.33
2018-06-08T02:09:06.949Z,3.50
2018-06-08T02:11:37.809Z,3.30
2018-06-08T02:14:08.201Z,3.70
2018-06-08T02:16:38.564Z,3.43
2018-06-08T02:19:09.691Z,3.17
2018-06-08T02:21:41.861Z,2.90
2018-06-08T02:24:12.481Z,3.17
2018-06-08T02:26:43.189Z,3.90
2018-06-08T02:29:34.728Z,3.20
2018-06-08T02:32:05.105Z,3.53
2018-06-08T02:34:35.475Z,3.83
2018-06-08T02:37:05.872Z,3.30
2018-06-08T02:39:36.363Z,3.43
2018-06-08T02:42:07.517Z,2.77
2018-06-08T02:47:27.623Z,3.83
2018-06-08T02:49:58.794Z,3.77
2018-06-08T02:52:29.152Z,3.17
2018-06-08T02:55:00.111Z,3.43
2018-06-08T02:57:30.577Z,3.00
2018-06-08T03:00:00.951Z,3.30
2018-06-08T03:02:31.318Z,3.33
2018-06-08T03:05:02.464Z,3.50
2018-06-08T03:07:33.045Z,3.60
2018-06-08T03:10:04.197Z,3.47
2018-06-08T03:12:34.578Z,3.30
2018-06-08T03:15:04.947Z,3.37
2018-06-08T03:17:35.320Z,3.70
2018-06-08T03:20:06.113Z,3.30
2018-06-08T03:22:36.485Z,3.50
2018-06-08T03:25:06.881Z,2.97
2018-06-08T03:27:37.533Z,3.40
2018-06-08T03:30:08.645Z,3.87
2018-06-08T03:32:39.005Z,3.50
2018-06-08T03:35:10.453Z,3.63
2018-06-08T03:37:42.014Z,3.80
2018-06-08T03:40:12.386Z,3.67
2018-06-08T03:42:43.067Z,3.33
2018-06-08T03:45:14.198Z,3.57
2018-06-08T03:47:46.408Z,3.13
2018-06-08T03:50:16.822Z,3.80
2018-06-08T03:52:47.188Z,3.87
2018-06-08T03:55:17.544Z,3.90
2018-06-08T03:57:49.492Z,3.60
2018-06-08T04:00:20.237Z,3.07
2018-06-08T04:02:50.595Z,3.13
2018-06-08T04:05:21.436Z,3.80
2018-06-08T04:07:51.822Z,3.43
2018-06-08T04:10:22.188Z,3.23
2018-06-08T04:12:52.578Z,3.60
2018-06-08T04:15:23.604Z,3.47
2018-06-08T04:17:54.380Z,3.47
2018-06-08T04:20:43.269Z,3.37
2018-06-08T04:23:17.728Z,3.43
2018-06-08T04:25:48.140Z,3.63
2018-06-08T04:28:18.428Z,3.63
2018-06-08T04:30:48.739Z,3.67
2018-06-08T04:33:19.730Z,3.90
2018-06-08T04:35:50.244Z,3.80
2018-06-08T04:38:40.193Z,3.87
2018-06-08T04:41:10.593Z,3.83
2018-06-08T04:43:40.957Z,4.10
2018-06-08T04:46:11.361Z,3.30
2018-06-08T04:48:42.706Z,4.03
2018-06-08T04:51:13.842Z,4.40
2018-06-08T04:53:44.232Z,4.10
2018-06-08T04:56:16.665Z,3.77
2018-06-08T04:58:47.791Z,4.10
2018-06-08T05:01:18.980Z,3.93
2018-06-08T05:03:49.307Z,3.90
2018-06-08T05:06:24.826Z,4.13
2018-06-08T05:08:55.220Z,3.87
2018-06-08T05:11:25.588Z,3.80
2018-06-08T05:13:55.964Z,3.73
2018-06-08T05:16:28.388Z,3.00
2018-06-08T05:19:00.072Z,3.07
2018-06-08T05:21:32.684Z,3.23
2018-06-08T05:24:03.075Z,2.70
2018-06-08T05:26:52.544Z,3.23
2018-06-08T05:29:27.025Z,3.90
2018-06-08T05:31:57.396Z,3.63
2018-06-08T05:34:27.853Z,3.03
2018-06-08T05:36:58.270Z,3.80
2018-06-08T05:39:50.045Z,3.60
2018-06-08T05:42:21.191Z,3.70
2018-06-08T05:44:51.503Z,3.50
2018-06-08T05:47:23.443Z,3.47
2018-06-08T05:49:53.823Z,3.80
2018-06-08T05:52:24.138Z,3.87
2018-06-08T05:54:54.501Z,3.60
2018-06-08T05:57:45.278Z,3.33
2018-06-08T06:00:15.874Z,3.67
2018-06-08T06:02:47.025Z,3.50
2018-06-08T06:05:17.436Z,3.83
2018-06-08T06:07:47.739Z,4.47
2018-06-08T06:10:18.111Z,4.37
2018-06-08T06:12:49.460Z,4.30
2018-06-08T06:15:20.601Z,3.80
2018-06-08T06:17:50.980Z,3.77
2018-06-08T06:20:22.949Z,3.90
2018-06-08T06:22:53.365Z,3.50
2018-06-08T06:25:43.187Z,3.97
2018-06-08T06:28:15.387Z,4.20
2018-06-08T06:30:45.758Z,3.77
2018-06-08T06:33:16.145Z,3.87
2018-06-08T06:35:46.516Z,4.10
2018-06-08T06:38:16.876Z,4.07
2018-06-08T06:40:48.055Z,3.80
2018-06-08T06:43:19.497Z,3.93
2018-06-08T06:45:51.088Z,4.00
2018-06-08T06:48:21.533Z,3.97
2018-06-08T06:50:51.844Z,4.30
2018-06-08T06:53:22.152Z,3.93
2018-06-08T06:55:56.614Z,4.00
2018-06-08T06:58:27.962Z,4.03
2018-06-08T07:00:59.713Z,4.00
2018-06-08T07:03:30.045Z,4.00
2018-06-08T07:06:00.875Z,3.47
2018-06-08T07:11:21.089Z,3.87
2018-06-08T07:13:51.722Z,3.80
2018-06-08T07:16:24.744Z,4.03
2018-06-08T07:18:55.501Z,3.77
2018-06-08T07:21:26.951Z,3.20
2018-06-08T07:24:04.898Z,3.53
2018-06-08T07:26:35.273Z,4.00
2018-06-08T07:29:09.994Z,3.73
2018-06-08T07:31:41.449Z,3.70
2018-06-08T07:34:12.444Z,3.83
2018-06-08T07:36:42.833Z,3.33
2018-06-08T07:39:35.326Z,3.70
2018-06-08T07:42:05.720Z,4.30
2018-06-08T07:44:36.278Z,4.23
2018-06-08T07:47:07.405Z,3.70
2018-06-08T07:49:37.787Z,3.80
2018-06-08T07:52:08.159Z,3.90
2018-06-08T07:54:38.516Z,3.90
2018-06-08T07:57:09.455Z,3.67
2018-06-08T07:59:40.356Z,3.47
2018-06-08T08:02:10.730Z,3.60
2018-06-08T08:04:41.134Z,4.30
2018-06-08T08:07:11.443Z,3.97
2018-06-08T08:09:42.599Z,3.80
2018-06-08T08:12:14.462Z,3.60
2018-06-08T08:14:44.804Z,3.93
2018-06-08T08:20:45.608Z,3.60
2018-06-08T08:26:24.549Z,3.50
2018-06-08T08:29:16.057Z,3.90
2018-06-08T08:31:47.294Z,3.80
2018-06-08T08:34:17.843Z,3.87
2018-06-08T08:36:50.281Z,4.10
2018-06-08T08:39:21.485Z,4.03
2018-06-08T08:41:51.829Z,3.83
2018-06-08T08:44:22.785Z,3.77
2018-06-08T08:46:54.557Z,3.67
2018-06-08T08:49:26.258Z,4.43
2018-06-08T08:51:56.763Z,4.10
2018-06-08T08:54:27.942Z,3.90
2018-06-08T08:56:58.739Z,3.60
2018-06-08T08:59:30.094Z,3.60
2018-06-08T09:02:00.563Z,3.83
2018-06-08T09:04:30.966Z,3.93
2018-06-08T09:07:04.133Z,3.63
2018-06-08T09:09:35.780Z,3.97
2018-06-08T09:12:06.729Z,4.20
2018-06-08T09:14:37.187Z,4.30
2018-06-08T09:17:09.647Z,4.63
2018-06-08T09:19:40.498Z,4.43
2018-06-08T09:22:17.116Z,5.00
2018-06-08T09:24:48.372Z,4.97
2018-06-08T09:27:18.789Z,4.90
2018-06-08T09:29:50.234Z,4.70
2018-06-08T09:32:21.994Z,4.70
2018-06-08T09:34:53.486Z,4.80
2018-06-08T09:37:24.068Z,4.13
2018-06-08T09:39:54.642Z,4.20
2018-06-08T09:42:24.982Z,4.00
2018-06-08T09:44:55.634Z,4.00
2018-06-08T09:47:26.293Z,4.40
2018-06-08T09:49:57.757Z,3.77
2018-06-08T09:52:28.904Z,3.73
2018-06-08T09:55:00.043Z,3.90
2018-06-08T09:57:32.197Z,3.67
2018-06-08T10:00:02.530Z,4.10
2018-06-08T10:02:33.163Z,4.40
2018-06-08T10:05:03.469Z,4.30
2018-06-08T10:07:34.266Z,4.10
2018-06-08T10:10:05.714Z,4.27
2018-06-08T10:12:36.738Z,4.13
2018-06-08T10:15:07.120Z,4.37
2018-06-08T10:17:40.135Z,4.13
2018-06-08T10:20:11.692Z,4.57
2018-06-08T10:22:42.274Z,4.30
2018-06-08T10:25:13.186Z,4.20
2018-06-08T10:27:43.548Z,4.13
2018-06-08T10:30:16.637Z,4.30
2018-06-08T10:32:47.039Z,3.90
2018-06-08T10:35:20.792Z,4.20
2018-06-08T10:37:51.204Z,4.70
2018-06-08T10:40:21.664Z,4.17
2018-06-08T10:42:53.012Z,4.27
2018-06-08T10:45:23.427Z,4.50
2018-06-08T10:47:53.817Z,4.70
2018-06-08T10:50:24.202Z,4.57
2018-06-08T10:52:54.607Z,4.40
2018-06-08T10:55:25.000Z,4.30
2018-06-08T10:58:15.804Z,5.13
2018-06-08T11:03:33.385Z,5.03
2018-06-08T11:06:03.753Z,4.33
2018-06-08T11:08:36.632Z,4.87
2018-06-08T11:11:07.027Z,4.37
2018-06-08T11:13:37.400Z,4.83
2018-06-08T11:16:11.479Z,5.00
2018-06-08T11:18:42.634Z,4.67
2018-06-08T11:21:13.011Z,4.80
2018-06-08T11:23:43.377Z,4.93
2018-06-08T11:26:14.538Z,4.67
2018-06-08T11:28:45.713Z,5.00
2018-06-08T11:31:35.473Z,4.60
2018-06-08T11:34:10.579Z,4.73
2018-06-08T11:36:40.158Z,4.63
2018-06-08T11:39:10.546Z,5.40
2018-06-08T11:41:40.898Z,5.60
2018-06-08T11:44:11.308Z,5.10
2018-06-08T11:46:41.695Z,5.27
2018-06-08T11:49:13.796Z,6.43
2018-06-08T11:51:44.139Z,5.93
2018-06-08T11:54:18.618Z,6.37
2018-06-08T11:56:49.793Z,6.03
2018-06-08T11:59:23.255Z,6.60
2018-06-08T12:01:57.019Z,5.60
2018-06-08T12:04:27.399Z,5.57
2018-06-08T12:06:57.779Z,5.70
2018-06-08T12:09:31.514Z,6.03
2018-06-08T12:12:02.793Z,6.10
2018-06-08T12:14:38.717Z,6.10
2018-06-08T12:17:11.814Z,5.93
2018-06-08T12:19:42.131Z,6.60
2018-06-08T12:22:13.306Z,5.77
2018-06-08T12:24:43.681Z,6.93
2018-06-08T12:27:14.385Z,6.30
2018-06-08T12:29:47.384Z,6.47
2018-06-08T12:32:17.778Z,6.83
2018-06-08T12:34:48.349Z,6.73
2018-06-08T12:37:18.760Z,6.57
2018-06-08T12:39:54.346Z,6.77
2018-06-08T12:42:27.471Z,6.87
2018-06-08T12:44:57.817Z,6.67
2018-06-08T12:47:30.916Z,6.20
2018-06-08T12:50:22.673Z,5.83
2018-06-08T12:52:53.065Z,6.63
2018-06-08T12:55:23.463Z,7.03
2018-06-08T12:57:53.880Z,6.60
2018-06-08T13:00:27.934Z,6.43
2018-06-08T13:02:58.332Z,7.07
2018-06-08T13:05:37.626Z,6.20
2018-06-08T13:08:08.349Z,5.67
2018-06-08T13:10:41.112Z,5.40
2018-06-08T13:13:16.099Z,5.53
2018-06-08T13:15:47.271Z,4.80
2018-06-08T13:18:17.639Z,5.37
2018-06-08T13:20:53.708Z,5.07
2018-06-08T13:23:24.089Z,5.10
2018-06-08T13:25:54.488Z,5.80
2018-06-08T13:28:24.893Z,5.53
2018-06-08T13:31:01.067Z,5.60
2018-06-08T13:33:34.906Z,5.43
2018-06-08T13:36:08.108Z,5.67
2018-06-08T13:41:26.723Z,5.17
2018-06-08T13:44:00.025Z,5.23
2018-06-08T13:46:39.866Z,5.40
2018-06-08T13:49:14.729Z,5.60
2018-06-08T13:51:51.363Z,5.30
2018-06-08T13:54:21.731Z,5.20
2018-06-08T13:56:54.820Z,5.27
2018-06-08T13:59:27.767Z,5.20
2018-06-08T14:01:58.152Z,4.90
2018-06-08T14:04:29.164Z,4.80
2018-06-08T14:07:01.608Z,5.13
2018-06-08T14:09:34.569Z,5.50
2018-06-08T14:12:24.336Z,5.30
2018-06-08T14:14:54.706Z,5.50
2018-06-08T14:17:27.683Z,5.97
2018-06-08T14:20:06.849Z,5.37
2018-06-08T14:22:43.050Z,5.17
2018-06-08T14:25:13.528Z,5.93
2018-06-08T14:27:46.369Z,5.53
2018-06-08T14:30:17.788Z,5.60
2018-06-08T14:32:51.784Z,6.03
2018-06-08T14:35:24.888Z,6.20
2018-06-08T14:37:55.996Z,6.03
2018-06-08T14:40:28.861Z,6.90
2018-06-08T14:43:04.534Z,6.63
2018-06-08T14:45:34.900Z,6.70
2018-06-08T14:48:05.274Z,6.87
2018-06-08T14:50:38.477Z,6.83
2018-06-08T14:53:08.795Z,7.00
2018-06-08T14:55:40.129Z,7.57
2018-06-08T14:58:13.270Z,7.73
2018-06-08T15:00:44.420Z,7.20
2018-06-08T15:03:14.794Z,8.20
2018-06-08T15:05:48.221Z,7.87
2018-06-08T15:08:21.229Z,7.87
2018-06-08T15:10:54.083Z,8.83
2018-06-08T15:13:27.350Z,8.00
2018-06-08T15:16:00.468Z,9.23
2018-06-08T15:18:30.794Z,8.90
2018-06-08T15:23:51.299Z,8.33
2018-06-08T15:26:24.581Z,9.47
2018-06-08T15:28:54.940Z,9.20
2018-06-08T15:31:25.342Z,9.17
2018-06-08T15:33:55.708Z,9.83
2018-06-08T15:36:26.979Z,9.33
2018-06-08T15:38:57.381Z,9.03
2018-06-08T15:41:31.048Z,8.30
2018-06-08T15:44:01.427Z,8.10
2018-06-08T15:46:31.759Z,8.20
2018-06-08T15:49:02.071Z,9.53
2018-06-08T15:51:32.429Z,9.33
2018-06-08T15:54:08.346Z,9.03
2018-06-08T15:56:39.424Z,9.63
2018-06-08T15:59:10.280Z,9.13
2018-06-08T16:01:40.609Z,9.67
2018-06-08T16:04:10.966Z,8.93
2018-06-08T16:06:44.180Z,8.20
2018-06-08T16:09:20.427Z,8.47
2018-06-08T16:11:54.310Z,8.43
2018-06-08T16:14:24.695Z,8.17
2018-06-08T16:16:59.032Z,7.67
2018-06-08T16:19:29.500Z,7.80
2018-06-08T16:22:03.165Z,8.00
2018-06-08T16:24:33.949Z,8.33
2018-06-08T16:27:04.612Z,7.60
2018-06-08T16:29:37.784Z,7.53
2018-06-08T16:32:10.609Z,7.67
2018-06-08T16:34:48.169Z,7.40
2018-06-08T16:37:18.741Z,7.47
2018-06-08T16:39:54.771Z,7.80
2018-06-08T16:42:25.133Z,7.00
2018-06-08T16:44:58.469Z,6.80
2018-06-08T16:47:29.635Z,6.57
2018-06-08T16:49:59.998Z,7.77
2018-06-08T16:52:30.379Z,7.27
2018-06-08T16:55:00.768Z,6.97
2018-06-08T16:57:31.140Z,7.20
2018-06-08T17:00:01.519Z,7.77
2018-06-08T17:02:34.688Z,6.60
2018-06-08T17:05:04.998Z,6.97
2018-06-08T17:07:41.522Z,6.80
2018-06-08T17:10:15.076Z,7.23
2018-06-08T17:12:46.491Z,7.07
2018-06-08T17:15:19.453Z,7.10
2018-06-08T17:17:49.766Z,6.23
2018-06-08T17:20:25.892Z,7.20
2018-06-08T17:22:58.962Z,6.97
2018-06-08T17:25:32.337Z,7.70
2018-06-08T17:28:06.351Z,6.70
2018-06-08T17:33:27.670Z,6.80
2018-06-08T17:36:01.659Z,7.13
2018-06-08T17:38:32.626Z,6.63
2018-06-08T17:41:03.143Z,7.33
2018-06-08T17:43:33.566Z,7.20
2018-06-08T17:46:04.111Z,7.00
2018-06-08T17:48:34.511Z,6.93
2018-06-08T17:51:07.827Z,6.43
2018-06-08T17:53:38.337Z,7.03
2018-06-08T17:56:11.700Z,7.10
2018-06-08T17:58:49.179Z,7.33
2018-06-08T18:01:22.441Z,7.07
2018-06-08T18:03:53.363Z,7.27
2018-06-08T18:06:23.738Z,6.63
2018-06-08T18:08:54.317Z,6.30
2018-06-08T18:11:27.556Z,6.37
2018-06-08T18:13:57.929Z,7.30
2018-06-08T18:16:28.346Z,7.10
2018-06-08T18:19:04.627Z,7.47
2018-06-08T18:21:34.967Z,6.90
2018-06-08T18:24:11.178Z,7.37
2018-06-08T18:26:41.895Z,6.53
2018-06-08T18:29:18.751Z,7.10
2018-06-08T18:31:49.171Z,6.93
2018-06-08T18:34:22.437Z,7.00
2018-06-08T18:36:53.183Z,6.83
2018-06-08T18:39:23.968Z,6.80
2018-06-08T18:41:54.331Z,7.70
2018-06-08T18:44:35.582Z,6.70
2018-06-08T18:47:06.622Z,6.93
2018-06-08T18:49:40.756Z,6.73
2018-06-08T18:52:13.948Z,6.47
2018-06-08T18:54:50.779Z,6.83
2018-06-08T18:57:21.938Z,7.73
2018-06-08T18:59:52.320Z,6.87
2018-06-08T19:02:22.687Z,7.30
2018-06-08T19:04:56.465Z,7.67
2018-06-08T19:07:27.090Z,7.60
2018-06-08T19:09:57.453Z,7.30
2018-06-08T19:12:28.612Z,7.63
2018-06-08T19:15:01.717Z,7.53
2018-06-08T19:17:37.059Z,7.60
2018-06-08T19:20:10.606Z,8.47
2018-06-08T19:22:40.976Z,7.27
2018-06-08T19:25:12.719Z,7.83
2018-06-08T19:27:46.981Z,7.70
2018-06-08T19:30:17.372Z,7.03
2018-06-08T19:32:47.690Z,7.83
2018-06-08T19:35:18.063Z,8.20
2018-06-08T19:37:51.203Z,8.50
2018-06-08T19:43:14.093Z,9.73
2018-06-08T19:45:44.455Z,8.30
2018-06-08T19:48:17.644Z,8.23
2018-06-08T19:50:54.854Z,8.70
2018-06-08T19:53:26.438Z,9.17
2018-06-08T19:55:56.810Z,9.23
2018-06-08T19:58:27.216Z,9.37
2018-06-08T20:00:57.564Z,9.60
2018-06-08T20:03:28.395Z,8.83
2018-06-08T20:06:05.897Z,9.37
2018-06-08T20:08:36.200Z,9.43
2018-06-08T20:11:28.926Z,9.53
2018-06-08T20:14:02.365Z,10.03
2018-06-08T20:16:35.549Z,9.90
2018-06-08T20:19:09.073Z,9.13
2018-06-08T20:22:07.550Z,9.13
2018-06-08T20:24:38.018Z,9.30
2018-06-08T20:27:11.880Z,9.13
2018-06-08T20:29:42.589Z,9.77
2018-06-08T20:32:15.780Z,9.83
2018-06-08T20:34:49.020Z,10.80
2018-06-08T20:37:19.331Z,10.33
2018-06-08T20:39:49.714Z,9.10
2018-06-08T20:42:22.934Z,9.83
2018-06-08T20:44:58.503Z,8.50
2018-06-08T20:47:28.913Z,9.33
2018-06-08T20:49:59.286Z,8.80
2018-06-08T20:52:30.170Z,9.47
2018-06-08T20:55:00.580Z,9.20
2018-06-08T20:57:30.953Z,8.83
2018-06-08T21:00:01.521Z,9.67
2018-06-08T21:02:34.454Z,10.00
2018-06-08T21:05:04.762Z,9.70
2018-06-08T21:07:43.243Z,8.37
2018-06-08T21:10:16.760Z,8.93
2018-06-08T21:12:47.339Z,9.27
2018-06-08T21:15:20.244Z,9.63
2018-06-08T21:17:51.378Z,9.13
2018-06-08T21:20:21.945Z,10.80
2018-06-08T21:22:52.342Z,9.77
2018-06-08T21:25:23.491Z,10.10
2018-06-08T21:27:54.634Z,10.57
2018-06-08T21:30:25.809Z,10.20
2018-06-08T21:32:56.384Z,9.63
2018-06-08T21:35:26.756Z,10.77
2018-06-08T21:37:57.146Z,11.00
2018-06-08T21:40:30.401Z,10.90
2018-06-08T21:43:04.473Z,11.43
2018-06-08T21:45:35.593Z,9.17
2018-06-08T21:48:05.950Z,8.77
2018-06-08T21:50:37.049Z,11.07
2018-06-08T21:53:07.405Z,9.63
2018-06-08T21:55:38.535Z,10.33
2018-06-08T21:58:08.963Z,12.23
2018-06-08T22:00:39.328Z,11.00
2018-06-08T22:03:09.698Z,12.00
2018-06-08T22:05:40.097Z,12.93
2018-06-08T22:08:14.551Z,12.97
2018-06-08T22:10:44.864Z,11.57
2018-06-08T22:13:15.264Z,12.30
2018-06-08T22:15:45.585Z,11.67
2018-06-08T22:18:15.963Z,11.77
2018-06-08T22:20:46.364Z,11.57
2018-06-08T22:23:16.920Z,14.23
2018-06-08T22:25:47.287Z,12.53
2018-06-08T22:28:17.703Z,12.87
2018-06-08T22:30:48.852Z,14.00
2018-06-08T22:33:19.223Z,12.10
2018-06-08T22:35:49.637Z,14.30
2018-06-08T22:38:26.124Z,14.93
2018-06-08T22:40:57.025Z,16.33
2018-06-08T22:43:30.760Z,15.17
2018-06-08T22:46:01.136Z,14.77
2018-06-08T22:48:31.520Z,15.60
2018-06-08T22:51:01.896Z,13.73
2018-06-08T22:53:34.363Z,15.03
2018-06-08T22:56:06.154Z,15.37
2018-06-08T22:58:36.527Z,15.63
2018-06-08T23:01:07.469Z,15.83
2018-06-08T23:03:38.821Z,15.63
2018-06-08T23:06:09.186Z,14.83
2018-06-08T23:08:39.555Z,14.23
2018-06-08T23:11:09.907Z,16.77
2018-06-08T23:13:40.279Z,15.67
2018-06-08T23:16:10.645Z,16.10
2018-06-08T23:18:40.999Z,16.17
2018-06-08T23:21:12.139Z,16.37
2018-06-08T23:23:43.275Z,16.90
2018-06-08T23:26:15.120Z,18.00
2018-06-08T23:28:45.482Z,16.43
2018-06-08T23:31:18.424Z,17.87
2018-06-08T23:33:49.523Z,17.13
2018-06-08T23:36:19.888Z,16.67
2018-06-08T23:38:50.934Z,16.20
2018-06-08T23:41:21.339Z,17.27
2018-06-08T23:43:51.789Z,18.50
2018-06-08T23:46:22.864Z,17.60
2018-06-08T23:48:54.324Z,16.57
2018-06-08T23:54:07.906Z,16.33
2018-06-08T23:56:41.870Z,18.00
2018-06-08T23:59:13.022Z,18.03
